Time;durP1;ratioP1;P1;durP2;ratioP2;P2;SDS_P1;SDS_P2;PMS_P1;PMS_P2;Temp;Humidity;BMP_temperature;BMP_pressure;BME280_temperature;BME280_humidity;BME280_pressure;Samples;Min_cycle;Max_cycle;Signal;HPM_P1;HPM_P2
2022/10/01 00:00:55;;;;;;;13.57;4.53;;;;;;;-145.69;100.00;72047.16;5034237;28;20215;-74
2022/10/01 00:03:23;;;;;;;10.77;4.70;;;;;;;-145.69;100.00;72053.13;5034698;28;20208;-74
2022/10/01 00:05:58;;;;;;;16.83;5.40;;;;;;;-145.69;100.00;72065.06;5034700;28;20208;-74
2022/10/01 00:08:27;;;;;;;9.50;4.83;;;;;;;-145.69;100.00;72075.03;5034376;28;20242;-74
2022/10/01 00:10:53;;;;;;;10.80;5.83;;;;;;;-145.69;100.00;72071.03;5034424;28;20641;-74
2022/10/01 00:13:20;;;;;;;11.90;5.37;;;;;;;-145.69;100.00;72081.00;5034367;28;20215;-74
2022/10/01 00:15:47;;;;;;;10.87;6.17;;;;;;;-145.69;100.00;72079.00;5034093;28;20227;-74
2022/10/01 00:18:13;;;;;;;14.80;7.40;;;;;;;-145.69;100.00;72090.94;5034497;28;20200;-74
2022/10/01 00:20:42;;;;;;;16.63;7.03;;;;;;;-145.69;100.00;72088.97;5034300;28;20226;-75
2022/10/01 00:23:08;;;;;;;11.60;5.77;;;;;;;-145.69;100.00;72100.91;5034116;28;20211;-74
2022/10/01 00:25:37;;;;;;;14.10;7.07;;;;;;;-145.69;100.00;72079.00;5034095;28;20196;-76
2022/10/01 00:28:03;;;;;;;13.07;6.23;;;;;;;-145.69;100.00;72086.97;5033527;28;20208;-74
2022/10/01 00:30:30;;;;;;;14.17;6.93;;;;;;;-145.69;100.00;72092.94;5033833;28;20203;-74
2022/10/01 00:32:56;;;;;;;16.40;6.93;;;;;;;-145.69;100.00;72090.94;5034131;28;20562;-76
2022/10/01 00:35:23;;;;;;;16.73;7.13;;;;;;;-145.69;100.00;72106.88;5033983;28;20208;-75
2022/10/01 00:37:51;;;;;;;20.40;7.57;;;;;;;-145.69;100.00;72086.97;5034053;28;20207;-75
2022/10/01 00:40:19;;;;;;;16.17;6.43;;;;;;;-145.69;100.00;72094.94;5033779;28;20651;-74
2022/10/01 00:42:47;;;;;;;17.47;6.70;;;;;;;-145.69;100.00;72104.88;5033679;28;20204;-73
2022/10/01 00:45:15;;;;;;;18.47;7.60;;;;;;;-145.69;100.00;72112.84;5033957;28;20204;-74
2022/10/01 00:47:49;;;;;;;15.57;7.07;;;;;;;-145.69;100.00;72110.84;5033782;28;20207;-74
2022/10/01 00:50:23;;;;;;;20.87;8.57;;;;;;;-145.69;100.00;72086.97;5033635;28;20570;-74
2022/10/01 00:52:53;;;;;;;16.90;7.83;;;;;;;-145.69;100.00;72090.94;5033400;28;20686;-73
2022/10/01 00:55:23;;;;;;;16.43;7.57;;;;;;;-145.69;100.00;72096.91;5033723;28;20188;-76
2022/10/01 00:57:52;;;;;;;20.10;8.17;;;;;;;-145.69;100.00;72106.88;5033339;28;20229;-75
2022/10/01 01:00:19;;;;;;;14.80;7.33;;;;;;;-145.69;100.00;72116.81;5033193;28;20229;-75
2022/10/01 01:02:45;;;;;;;17.53;7.33;;;;;;;-145.69;100.00;72081.00;5033593;28;20222;-76
2022/10/01 01:05:12;;;;;;;16.00;7.67;;;;;;;-145.69;100.00;72104.88;5033370;28;20200;-74
2022/10/01 01:07:44;;;;;;;14.30;7.27;;;;;;;-145.69;100.00;72098.91;5033261;28;20261;-74
2022/10/01 01:10:13;;;;;;;18.37;7.50;;;;;;;-145.69;100.00;72090.94;5033388;28;20200;-75
2022/10/01 01:12:53;;;;;;;15.30;6.63;;;;;;;-145.69;100.00;72094.94;5033358;28;20231;-75
2022/10/01 01:15:29;;;;;;;23.40;7.30;;;;;;;-145.69;100.00;72106.88;5033318;28;20207;-77
2022/10/01 01:18:02;;;;;;;19.07;7.40;;;;;;;-145.69;100.00;72090.94;5032421;28;20531;-75
2022/10/01 01:20:55;;;;;;;13.43;6.23;;;;;;;-145.69;100.00;72088.97;5033437;28;20207;-75
2022/10/01 01:24:03;;;;;;;15.07;7.00;;;;;;;-145.69;100.00;72098.91;5033219;28;20208;-75
2022/10/01 01:26:41;;;;;;;21.70;7.27;;;;;;;-145.69;100.00;72102.88;5025131;28;20231;-75
2022/10/01 01:29:15;;;;;;;26.30;6.53;;;;;;;-145.69;100.00;72084.97;5032893;28;20207;-76
2022/10/01 01:31:45;;;;;;;13.33;6.10;;;;;;;-145.69;100.00;72090.94;5013173;28;20236;-75
2022/10/01 01:34:18;;;;;;;13.20;6.43;;;;;;;-145.69;100.00;72092.94;5013327;28;20200;-75
2022/10/01 01:36:50;;;;;;;17.67;5.00;;;;;;;-145.69;100.00;72092.94;5012819;28;20205;-75
2022/10/01 01:39:18;;;;;;;12.23;5.47;;;;;;;-145.69;100.00;72084.97;5023741;28;20196;-75
2022/10/01 01:41:51;;;;;;;11.73;5.50;;;;;;;-145.69;100.00;72090.94;5033100;28;20223;-75
2022/10/01 01:44:25;;;;;;;9.80;5.03;;;;;;;-145.69;100.00;72077.00;5032937;28;20204;-75
2022/10/01 01:46:55;;;;;;;8.50;5.07;;;;;;;-145.69;100.00;72069.06;5032939;28;20196;-74
2022/10/01 01:49:23;;;;;;;13.47;5.87;;;;;;;-145.69;100.00;72073.03;5032846;28;20207;-75
2022/10/01 01:51:56;;;;;;;12.97;5.97;;;;;;;-145.69;100.00;72065.06;5032533;28;20236;-74
2022/10/01 01:54:24;;;;;;;10.57;5.57;;;;;;;-145.69;100.00;72053.13;5032783;28;20211;-75
2022/10/01 01:56:51;;;;;;;11.33;5.83;;;;;;;-145.69;100.00;72039.19;5032877;28;20254;-75
2022/10/01 01:59:19;;;;;;;10.53;5.10;;;;;;;-145.69;100.00;72043.19;5032423;28;20226;-75
2022/10/01 02:01:48;;;;;;;11.07;5.07;;;;;;;-145.69;100.00;72051.16;5032584;28;20200;-75
2022/10/01 02:04:20;;;;;;;10.77;4.70;;;;;;;-145.69;100.00;72039.19;5032843;28;20262;-75
2022/10/01 02:07:02;;;;;;;8.40;4.60;;;;;;;-145.69;100.00;72045.16;5032778;28;20249;-75
2022/10/01 02:09:35;;;;;;;9.47;4.50;;;;;;;-145.69;100.00;72025.28;5034647;28;20282;-74
2022/10/01 02:12:12;;;;;;;6.47;4.10;;;;;;;-145.69;100.00;71993.44;5036551;28;20717;-74
2022/10/01 02:14:52;;;;;;;8.27;4.30;;;;;;;-145.69;100.00;71997.41;5036589;28;20813;-75
2022/10/01 02:17:29;;;;;;;6.37;4.00;;;;;;;-145.69;100.00;72015.31;5036146;28;20236;-75
2022/10/01 02:19:59;;;;;;;10.53;3.30;;;;;;;-145.69;100.00;72015.31;5036518;28;20258;-75
2022/10/01 02:22:35;;;;;;;6.80;3.90;;;;;;;-145.69;100.00;72005.38;5036520;28;20227;-75
2022/10/01 02:25:04;;;;;;;6.90;3.77;;;;;;;-145.69;100.00;71995.41;5036643;28;20199;-75
2022/10/01 02:27:35;;;;;;;6.13;3.50;;;;;;;-145.69;100.00;71997.41;5036013;28;20200;-75
2022/10/01 02:30:07;;;;;;;6.40;3.60;;;;;;;-145.69;100.00;71995.41;5022826;28;20682;-75
2022/10/01 02:32:36;;;;;;;4.93;3.40;;;;;;;-145.69;100.00;71991.44;5036160;28;20228;-76
2022/10/01 02:35:04;;;;;;;5.50;3.50;;;;;;;-145.69;100.00;71959.59;5036038;28;20283;-76
2022/10/01 02:37:33;;;;;;;5.80;3.43;;;;;;;-145.69;100.00;71963.56;5036417;28;20208;-76
2022/10/01 02:40:02;;;;;;;8.63;3.40;;;;;;;-145.69;100.00;71947.66;5036128;28;20682;-76
2022/10/01 02:42:30;;;;;;;11.07;4.03;;;;;;;-145.69;100.00;71903.88;5036091;28;20200;-75
2022/10/01 02:45:01;;;;;;;3.40;2.40;;;;;;;-145.69;100.00;71887.94;5035949;28;20211;-75
2022/10/01 02:47:33;;;;;;;3.10;2.30;;;;;;;-145.69;100.00;71897.91;5036039;28;20200;-76
2022/10/01 02:50:00;;;;;;;4.97;2.40;;;;;;;-145.69;100.00;71895.91;5036150;28;20204;-75
2022/10/01 02:52:34;;;;;;;3.27;2.30;;;;;;;-145.69;100.00;71909.84;5036013;28;20236;-75
2022/10/01 02:55:05;;;;;;;3.30;2.10;;;;;;;-145.69;100.00;71927.75;5035976;28;20211;-75
2022/10/01 02:57:31;;;;;;;3.27;2.50;;;;;;;-145.69;100.00;71933.72;5036015;28;20207;-75
2022/10/01 02:59:59;;;;;;;3.67;2.30;;;;;;;-145.69;100.00;71931.72;5035166;28;20197;-75
2022/10/01 03:02:27;;;;;;;4.23;2.53;;;;;;;-145.69;100.00;71899.88;5035932;28;20208;-75
2022/10/01 03:04:56;;;;;;;3.57;2.40;;;;;;;-145.69;100.00;71899.88;5035702;28;20200;-76
2022/10/01 03:07:23;;;;;;;4.93;2.30;;;;;;;-145.69;100.00;71901.88;5035824;28;20710;-75
2022/10/01 03:09:50;;;;;;;3.40;2.20;;;;;;;-145.69;100.00;71897.91;5035363;28;20196;-74
2022/10/01 03:12:17;;;;;;;2.87;1.67;;;;;;;-145.69;100.00;71907.84;5035577;28;20635;-75
2022/10/01 03:14:44;;;;;;;2.30;1.53;;;;;;;-145.69;100.00;71899.88;5035419;28;20211;-75
2022/10/01 03:17:11;;;;;;;7.70;2.23;;;;;;;-145.69;100.00;71915.81;5034819;28;20263;-75
2022/10/01 03:19:38;;;;;;;4.00;1.93;;;;;;;-145.69;100.00;71931.72;5035195;28;20204;-75
2022/10/01 03:22:05;;;;;;;3.87;2.00;;;;;;;-145.69;100.00;71931.72;5035152;28;20204;-75
2022/10/01 03:24:32;;;;;;;1.70;1.30;;;;;;;-145.69;100.00;71913.81;5035456;28;20196;-74
2022/10/01 03:26:59;;;;;;;1.90;1.30;;;;;;;-145.69;100.00;71897.91;5035305;28;20207;-75
2022/10/01 03:29:26;;;;;;;1.50;1.37;;;;;;;-145.69;100.00;71872.03;5034885;28;20201;-75
2022/10/01 03:31:53;;;;;;;1.93;1.03;;;;;;;-145.69;100.00;71834.22;5035177;28;20243;-75
2022/10/01 03:34:20;;;;;;;2.43;1.20;;;;;;;-145.69;100.00;71852.13;5035008;28;20204;-75
2022/10/01 03:36:47;;;;;;;2.43;1.00;;;;;;;-145.69;100.00;71840.19;5035054;28;20205;-75
2022/10/01 03:39:15;;;;;;;1.90;1.13;;;;;;;-145.69;100.00;71844.16;5035167;28;20222;-75
2022/10/01 03:41:41;;;;;;;1.43;0.97;;;;;;;-145.69;100.00;71826.25;5034849;28;20200;-75
2022/10/01 03:44:08;;;;;;;1.13;1.03;;;;;;;-145.69;100.00;71820.28;5034883;28;20195;-74
2022/10/01 03:46:34;;;;;;;4.00;1.10;;;;;;;-145.69;100.00;71820.28;5035073;28;20208;-75
2022/10/01 03:49:01;;;;;;;2.77;1.00;;;;;;;-145.69;100.00;71848.16;5034571;28;20208;-75
2022/10/01 03:51:28;;;;;;;2.23;1.40;;;;;;;-145.69;100.00;71848.16;5034782;28;20211;-75
2022/10/01 03:53:54;;;;;;;1.60;1.10;;;;;;;-145.69;100.00;71832.22;5034857;28;20204;-74
2022/10/01 03:56:22;;;;;;;1.60;1.13;;;;;;;-145.69;100.00;71828.25;5034615;28;20197;-74
2022/10/01 03:58:49;;;;;;;2.47;0.90;;;;;;;-145.69;100.00;71824.25;5034891;28;20200;-76
2022/10/01 04:01:15;;;;;;;1.00;1.00;;;;;;;-145.69;100.00;71840.19;5033895;28;20662;-75
2022/10/01 04:03:42;;;;;;;1.37;1.07;;;;;;;-145.69;100.00;71816.31;5034621;28;20223;-75
2022/10/01 04:06:09;;;;;;;1.00;1.00;;;;;;;-145.69;100.00;71792.44;5034369;28;20231;-75
2022/10/01 04:08:35;;;;;;;2.27;0.90;;;;;;;-145.69;100.00;71760.59;5034308;28;20659;-75
2022/10/01 04:11:02;;;;;;;2.00;1.10;;;;;;;-145.69;100.00;71764.56;5034358;28;20207;-74
2022/10/01 04:13:30;;;;;;;1.17;1.07;;;;;;;-145.69;100.00;71770.53;5034349;28;20234;-75
2022/10/01 04:15:56;;;;;;;1.73;1.03;;;;;;;-145.69;100.00;71780.50;5034173;28;20224;-75
2022/10/01 04:18:23;;;;;;;1.83;1.10;;;;;;;-145.69;100.00;71784.47;5034250;28;20662;-75
2022/10/01 04:20:49;;;;;;;2.42;1.00;;;;;;;-145.69;100.00;71760.59;5033278;28;20437;-75
2022/10/01 04:23:16;;;;;;;1.60;1.10;;;;;;;-145.69;100.00;71742.69;5033388;28;20204;-75
2022/10/01 04:25:42;;;;;;;2.77;1.10;;;;;;;-145.69;100.00;71744.66;5034047;28;20698;-75
2022/10/01 04:28:11;;;;;;;3.40;1.20;;;;;;;-145.69;100.00;71756.59;5033965;28;20196;-74
2022/10/01 04:30:41;;;;;;;2.20;1.30;;;;;;;-145.69;100.00;71748.66;5034138;28;20216;-74
2022/10/01 04:33:08;;;;;;;1.43;1.00;;;;;;;-145.69;100.00;71740.69;5032884;28;20598;-75
2022/10/01 04:35:35;;;;;;;1.77;1.23;;;;;;;-145.69;100.00;71744.66;5034041;28;20606;-75
2022/10/01 04:38:04;;;;;;;1.43;1.03;;;;;;;-145.69;100.00;71764.56;5033556;28;20231;-75
2022/10/01 04:40:31;;;;;;;1.30;1.17;;;;;;;-145.69;100.00;71736.72;5034080;28;20208;-75
2022/10/01 04:42:57;;;;;;;3.40;1.40;;;;;;;-145.69;100.00;71720.78;5033351;28;20203;-75
2022/10/01 04:45:24;;;;;;;1.97;1.40;;;;;;;-145.69;100.00;71730.72;5033867;28;20200;-75
2022/10/01 04:47:54;;;;;;;3.27;1.60;;;;;;;-145.69;100.00;71728.75;5033847;28;20212;-74
2022/10/01 04:50:22;;;;;;;2.33;1.40;;;;;;;-145.69;100.00;71726.75;5033769;28;20295;-75
2022/10/01 04:52:49;;;;;;;2.87;1.43;;;;;;;-145.69;100.00;71722.78;5033218;28;20586;-75
2022/10/01 04:55:16;;;;;;;1.30;1.20;;;;;;;-145.69;100.00;71720.78;5033630;28;20200;-75
2022/10/01 04:57:43;;;;;;;2.17;1.20;;;;;;;-145.69;100.00;71708.84;5033754;28;20204;-75
2022/10/01 05:00:13;;;;;;;1.93;1.23;;;;;;;-145.69;100.00;71698.91;5033273;28;20593;-74
2022/10/01 05:02:39;;;;;;;1.63;1.40;;;;;;;-145.69;100.00;71706.84;5033492;28;20211;-75
2022/10/01 05:05:08;;;;;;;6.40;1.30;;;;;;;-145.69;100.00;71700.88;5033445;28;20204;-75
2022/10/01 05:07:35;;;;;;;2.20;1.10;;;;;;;-145.69;100.00;71700.88;5033094;28;20203;-75
2022/10/01 05:10:02;;;;;;;1.90;1.30;;;;;;;-145.69;100.00;71706.84;5033252;28;20208;-75
2022/10/01 05:12:28;;;;;;;1.50;1.30;;;;;;;-145.69;100.00;71708.84;5033031;28;20690;-75
2022/10/01 05:14:56;;;;;;;1.73;1.33;;;;;;;-145.69;100.00;71704.88;5033263;28;20547;-75
2022/10/01 05:17:23;;;;;;;1.37;1.13;;;;;;;-145.69;100.00;71686.97;5032736;28;20232;-75
2022/10/01 05:19:50;;;;;;;1.20;1.00;;;;;;;-145.69;100.00;71673.03;5033043;28;20204;-76
2022/10/01 05:22:18;;;;;;;2.30;1.30;;;;;;;-145.69;100.00;71679.00;5033312;28;20204;-76
2022/10/01 05:24:46;;;;;;;2.93;1.37;;;;;;;-145.69;100.00;71684.97;5033301;28;20200;-76
2022/10/01 05:27:12;;;;;;;2.47;1.17;;;;;;;-145.69;100.00;71682.97;5032902;28;20200;-75
2022/10/01 05:29:39;;;;;;;1.97;1.20;;;;;;;-145.69;100.00;71686.97;5033090;28;20208;-75
2022/10/01 05:32:06;;;;;;;1.63;1.10;;;;;;;-145.69;100.00;71675.00;5032899;28;20204;-75
2022/10/01 05:34:33;;;;;;;3.70;1.30;;;;;;;-145.69;100.00;71655.13;5032997;28;20693;-74
2022/10/01 05:36:59;;;;;;;1.20;1.10;;;;;;;-145.69;100.00;71663.06;5032391;28;20199;-75
2022/10/01 05:39:27;;;;;;;4.17;1.27;;;;;;;-145.69;100.00;71651.13;5033151;28;20606;-75
2022/10/01 05:41:54;;;;;;;1.97;1.10;;;;;;;-145.69;100.00;71651.13;5033053;28;20195;-75
2022/10/01 05:44:21;;;;;;;2.50;1.37;;;;;;;-145.69;100.00;71649.16;5016459;28;20331;-75
2022/10/01 05:46:47;;;;;;;2.90;1.60;;;;;;;-145.69;100.00;71659.09;5012799;28;20568;-75
2022/10/01 05:49:14;;;;;;;3.23;1.10;;;;;;;-145.69;100.00;71671.03;5013161;28;20205;-75
2022/10/01 05:51:41;;;;;;;5.77;1.83;;;;;;;-145.69;100.00;71665.06;5013125;28;20205;-75
2022/10/01 05:54:07;;;;;;;3.37;1.33;;;;;;;-145.69;100.00;71665.06;5013161;28;20236;-75
2022/10/01 05:56:35;;;;;;;2.57;1.60;;;;;;;-145.69;100.00;71645.16;5013150;28;20201;-75
2022/10/01 05:59:02;;;;;;;2.23;1.23;;;;;;;-145.69;100.00;71649.16;5013103;28;20208;-75
2022/10/01 06:01:29;;;;;;;3.60;1.87;;;;;;;-145.69;100.00;71637.19;5012926;28;20207;-74
2022/10/01 06:03:55;;;;;;;4.07;2.10;;;;;;;-145.69;100.00;71633.22;5013054;28;20212;-74
2022/10/01 06:06:22;;;;;;;1.63;1.40;;;;;;;-145.69;100.00;71625.25;5018510;28;20192;-75
2022/10/01 06:08:49;;;;;;;2.20;1.40;;;;;;;-145.69;100.00;71607.34;5032596;28;20203;-74
2022/10/01 06:11:16;;;;;;;2.70;1.20;;;;;;;-145.69;100.00;71593.44;5032431;28;20200;-75
2022/10/01 06:13:45;;;;;;;2.87;1.50;;;;;;;-145.69;100.00;71593.44;5032549;28;20255;-74
2022/10/01 06:16:12;;;;;;;2.83;1.20;;;;;;;-145.69;100.00;71601.38;5032241;28;20641;-76
2022/10/01 06:18:38;;;;;;;2.07;1.40;;;;;;;-145.69;100.00;71587.47;5032645;28;20204;-75
2022/10/01 06:21:05;;;;;;;2.50;1.33;;;;;;;-145.69;100.00;71581.50;5031736;28;20647;-74
2022/10/01 06:23:32;;;;;;;2.83;1.17;;;;;;;-145.69;100.00;71575.50;5032177;28;20211;-75
2022/10/01 06:26:00;;;;;;;3.20;1.30;;;;;;;-145.69;100.00;71555.63;5032434;28;20202;-76
2022/10/01 06:28:27;;;;;;;2.40;1.13;;;;;;;-145.69;100.00;71545.66;5032490;28;20203;-75
2022/10/01 06:30:55;;;;;;;1.50;1.20;;;;;;;-145.69;100.00;71545.66;5032051;28;20651;-76
2022/10/01 06:33:21;;;;;;;2.17;0.97;;;;;;;-145.69;100.00;71549.66;5032504;28;20228;-75
2022/10/01 06:35:50;;;;;;;1.33;1.03;;;;;;;-145.69;100.00;71559.59;5032536;28;20207;-77
2022/10/01 06:38:19;;;;;;;1.83;1.10;;;;;;;-145.69;100.00;71563.56;5032177;28;20559;-76
2022/10/01 06:40:51;;;;;;;3.57;1.77;;;;;;;-145.69;100.00;71551.63;5032254;28;20200;-75
2022/10/01 06:43:18;;;;;;;2.77;1.70;;;;;;;-145.69;100.00;71557.59;5032409;28;20204;-75
2022/10/01 06:45:44;;;;;;;10.20;2.43;;;;;;;-145.69;100.00;71557.59;5032366;28;20662;-74
2022/10/01 06:48:15;;;;;;;5.83;2.73;;;;;;;-145.69;100.00;71559.59;5032150;28;20204;-76
2022/10/01 06:50:43;;;;;;;4.73;2.23;;;;;;;-145.69;100.00;71537.72;5032333;28;20204;-74
2022/10/01 06:53:10;;;;;;;3.83;2.40;;;;;;;-145.69;100.00;71541.69;5032357;28;20223;-75
2022/10/01 06:55:37;;;;;;;2.70;1.30;;;;;;;-145.69;100.00;71529.75;5034057;28;20326;-76
2022/10/01 06:58:06;;;;;;;2.47;1.40;;;;;;;-145.69;100.00;71537.72;5035014;28;20445;-76
2022/10/01 07:00:34;;;;;;;5.57;2.63;;;;;;;-145.69;100.00;71521.78;5036006;28;20258;-76
2022/10/01 07:03:03;;;;;;;2.70;1.57;;;;;;;-145.69;100.00;71517.81;5035621;28;20218;-76
2022/10/01 07:05:31;;;;;;;6.27;1.27;;;;;;;-145.69;100.00;71521.78;5035408;28;20200;-75
2022/10/01 07:07:57;;;;;;;2.53;1.47;;;;;;;-145.69;100.00;71517.81;5035141;28;20199;-75
2022/10/01 07:10:24;;;;;;;1.60;1.10;;;;;;;-145.69;100.00;71521.78;5035430;28;20753;-75
2022/10/01 07:12:51;;;;;;;1.43;1.00;;;;;;;-145.69;100.00;71525.78;5035118;28;20270;-75
2022/10/01 07:15:21;;;;;;;4.43;1.43;;;;;;;-145.69;100.00;71515.81;5035593;28;20210;-74
2022/10/01 07:17:49;;;;;;;2.17;0.93;;;;;;;-145.69;100.00;71509.84;5015608;28;20201;-74
2022/10/01 07:20:17;;;;;;;3.20;1.73;;;;;;;-145.69;100.00;71511.84;5015624;28;20205;-75
2022/10/01 07:22:45;;;;;;;2.57;1.20;;;;;;;-145.69;100.00;71495.91;5015530;28;20232;-75
2022/10/01 07:25:12;;;;;;;4.00;1.27;;;;;;;-145.69;100.00;71497.91;5015743;28;20200;-75
2022/10/01 07:27:39;;;;;;;2.33;1.30;;;;;;;-145.69;100.00;71495.91;5015636;28;20208;-75
2022/10/01 07:30:07;;;;;;;3.33;1.17;;;;;;;-145.69;100.00;71487.97;5015524;28;20211;-75
2022/10/01 07:32:35;;;;;;;1.87;0.80;;;;;;;-145.69;100.00;71495.91;5015215;28;20208;-74
2022/10/01 07:35:02;;;;;;;0.87;0.70;;;;;;;-145.69;100.00;71507.84;5015328;28;20677;-75
2022/10/01 07:37:28;;;;;;;1.87;1.17;;;;;;;-145.69;100.00;71513.81;5014987;28;20243;-76
2022/10/01 07:39:56;;;;;;;3.63;1.00;;;;;;;-145.69;100.00;71519.81;5015092;28;20204;-77
2022/10/01 07:42:23;;;;;;;3.37;0.97;;;;;;;-145.69;100.00;71515.81;5015173;28;20284;-76
2022/10/01 07:44:49;;;;;;;1.03;0.63;;;;;;;-145.69;100.00;71515.81;5014887;28;20205;-76
2022/10/01 07:47:15;;;;;;;4.87;1.60;;;;;;;-145.69;100.00;71521.78;5015125;28;20201;-77
2022/10/01 07:49:42;;;;;;;1.63;1.03;;;;;;;-145.69;100.00;71529.75;5015057;28;20204;-77
2022/10/01 07:52:08;;;;;;;1.20;0.87;;;;;;;-145.69;100.00;71527.75;5015260;28;20197;-76
2022/10/01 07:54:35;;;;;;;2.20;0.80;;;;;;;-145.69;100.00;71513.81;5015100;28;20228;-76
2022/10/01 07:57:03;;;;;;;3.53;1.63;;;;;;;-145.69;100.00;71517.81;5014869;28;20678;-75
2022/10/01 07:59:30;;;;;;;1.53;1.00;;;;;;;-145.69;100.00;71525.78;5015045;28;20207;-76
2022/10/01 08:01:56;;;;;;;5.13;1.60;;;;;;;-145.69;100.00;71531.75;5014426;28;20664;-76
2022/10/01 08:07:08;;;;;;;3.13;0.80;;;;;;;-145.69;100.00;71519.81;5013425;28;20247;-75
2022/10/01 08:09:34;;;;;;;2.60;1.20;;;;;;;-145.69;100.00;71521.78;5014499;28;20201;-76
2022/10/01 08:12:03;;;;;;;1.23;1.13;;;;;;;-145.69;100.00;71509.84;5014777;28;20211;-76
2022/10/01 08:14:29;;;;;;;1.43;1.20;;;;;;;-145.69;100.00;71521.78;5014482;28;20228;-76
2022/10/01 08:16:56;;;;;;;2.47;1.30;;;;;;;-145.69;100.00;71517.81;5026803;28;20717;-77
2022/10/01 08:19:23;;;;;;;2.80;1.73;;;;;;;-145.69;100.00;71505.88;5034194;28;20207;-76
2022/10/01 08:21:50;;;;;;;2.10;0.90;;;;;;;-145.69;100.00;71501.88;5034146;28;20200;-75
2022/10/01 08:24:16;;;;;;;2.27;1.07;;;;;;;-145.69;100.00;71482.00;5034234;28;20211;-76
2022/10/01 08:26:43;;;;;;;2.87;1.40;;;;;;;-145.69;100.00;71505.88;5033950;28;20246;-75
2022/10/01 08:29:11;;;;;;;1.20;1.03;;;;;;;-145.69;100.00;71515.81;5033660;28;20670;-74
2022/10/01 08:31:37;;;;;;;8.60;3.37;;;;;;;-145.69;100.00;71517.81;5033989;28;20211;-77
2022/10/01 08:34:04;;;;;;;2.00;1.20;;;;;;;-145.69;100.00;71521.78;5034215;28;20231;-76
2022/10/01 08:36:31;;;;;;;3.23;1.57;;;;;;;-145.69;100.00;71515.81;5033767;28;20196;-77
2022/10/01 08:38:58;;;;;;;1.30;1.00;;;;;;;-145.69;100.00;71517.81;5034004;28;20204;-77
2022/10/01 08:41:33;;;;;;;2.90;1.30;;;;;;;-145.69;100.00;71515.81;5033715;28;20208;-77
2022/10/01 08:44:02;;;;;;;1.50;1.00;;;;;;;-145.69;100.00;71501.88;5033810;28;20594;-76
2022/10/01 08:46:34;;;;;;;0.70;0.70;;;;;;;-145.69;100.00;71480.00;5033965;28;20570;-75
2022/10/01 08:49:07;;;;;;;3.93;1.10;;;;;;;-145.69;100.00;71497.91;5021239;28;20205;-75
2022/10/01 08:51:42;;;;;;;1.03;0.60;;;;;;;-145.69;100.00;71480.00;5013995;28;20201;-75
2022/10/01 08:54:27;;;;;;;1.30;0.70;;;;;;;-145.69;100.00;71489.94;5013834;28;20238;-76
2022/10/01 08:56:55;;;;;;;1.10;0.80;;;;;;;-145.69;100.00;71493.94;5013977;28;20204;-77
2022/10/01 08:59:33;;;;;;;1.70;0.77;;;;;;;-145.69;100.00;71489.94;5013612;28;20216;-75
2022/10/01 09:02:02;;;;;;;1.17;0.87;;;;;;;-145.69;100.00;71501.88;5013979;28;20204;-75
2022/10/01 09:04:29;;;;;;;0.80;0.80;;;;;;;-145.69;100.00;71493.94;5019563;28;20193;-75
2022/10/01 09:07:03;;;;;;;2.43;0.70;;;;;;;-145.69;100.00;71489.94;5033276;28;20203;-74
2022/10/01 09:09:42;;;;;;;2.10;1.20;;;;;;;-145.69;100.00;71478.00;5033487;28;20204;-75
2022/10/01 09:12:20;;;;;;;1.60;0.90;;;;;;;-145.69;100.00;71478.00;5033443;28;20200;-74
2022/10/01 09:15:00;;;;;;;1.43;0.90;;;;;;;-145.69;100.00;71466.06;5032779;28;20690;-74
2022/10/01 09:17:44;;;;;;;2.93;1.00;;;;;;;-145.69;100.00;71474.03;5032748;28;20698;-75
2022/10/01 09:20:20;;;;;;;0.67;0.60;;;;;;;-145.69;100.00;71476.03;5033378;28;20290;-74
2022/10/01 09:22:56;;;;;;;1.00;0.80;;;;;;;-145.69;100.00;71483.97;5033181;28;20566;-75
2022/10/01 09:25:24;;;;;;;1.47;0.80;;;;;;;-145.69;100.00;71493.94;5032846;28;20211;-75
2022/10/01 09:27:56;;;;;;;2.23;0.90;;;;;;;-145.69;100.00;71493.94;5033041;28;20204;-75
2022/10/01 09:30:25;;;;;;;2.77;2.00;;;;;;;-145.69;100.00;71493.94;5032649;28;20214;-75
2022/10/01 09:32:58;;;;;;;3.07;1.17;;;;;;;-145.69;100.00;71507.84;5033103;28;20227;-75
2022/10/01 09:35:35;;;;;;;2.13;1.00;;;;;;;-145.69;100.00;71474.03;5032260;28;20231;-75
2022/10/01 09:38:09;;;;;;;1.00;0.90;;;;;;;-145.69;100.00;71480.00;5032984;28;20200;-76
2022/10/01 09:40:46;;;;;;;0.90;0.90;;;;;;;-145.69;100.00;71489.94;5031292;28;20282;-77
2022/10/01 09:43:13;;;;;;;0.97;0.70;;;;;;;-145.69;100.00;71497.91;5032876;28;20617;-76
2022/10/01 09:45:40;;;;;;;1.40;0.90;;;;;;;-145.69;100.00;71478.00;5032638;28;20291;-77
2022/10/01 09:48:21;;;;;;;1.93;1.00;;;;;;;-145.69;100.00;71489.94;5032840;28;20231;-76
2022/10/01 09:50:55;;;;;;;5.33;1.30;;;;;;;-145.69;100.00;71470.06;5032857;28;20200;-74
2022/10/01 09:53:28;;;;;;;2.83;1.00;;;;;;;-145.69;100.00;71478.00;5032716;28;20200;-74
2022/10/01 09:56:10;;;;;;;1.23;1.00;;;;;;;-145.69;100.00;71458.09;5033397;28;20215;-75
2022/10/01 09:58:42;;;;;;;1.30;1.10;;;;;;;-145.69;100.00;71468.06;5033847;28;20211;-76
2022/10/01 10:01:23;;;;;;;3.03;0.90;;;;;;;-145.69;100.00;71483.97;5033111;28;20204;-76
2022/10/01 10:03:56;;;;;;;1.50;1.10;;;;;;;-145.69;100.00;71482.00;5032429;28;20235;-76
2022/10/01 10:06:27;;;;;;;1.50;1.20;;;;;;;-145.69;100.00;71489.94;5033266;28;20204;-74
2022/10/01 10:08:55;;;;;;;1.50;0.90;;;;;;;-145.69;100.00;71501.88;5032208;28;20287;-74
2022/10/01 10:11:27;;;;;;;1.23;0.90;;;;;;;-145.69;100.00;71501.88;5032544;28;20291;-75
2022/10/01 10:13:58;;;;;;;1.93;1.23;;;;;;;-145.69;100.00;71462.09;5030882;28;20319;-75
2022/10/01 10:16:30;;;;;;;1.53;0.83;;;;;;;-145.69;100.00;71480.00;5032631;28;20634;-76
2022/10/01 10:19:05;;;;;;;1.80;0.80;;;;;;;-145.69;100.00;71493.94;5031861;28;20200;-77
2022/10/01 10:21:36;;;;;;;1.03;0.77;;;;;;;-145.69;100.00;71489.94;5032715;28;20207;-75
2022/10/01 10:24:06;;;;;;;2.40;0.95;;;;;;;-145.69;100.00;71489.94;5031701;28;20437;-76
2022/10/01 10:26:34;;;;;;;1.07;0.90;;;;;;;-145.69;100.00;71470.06;5032547;28;20565;-75
2022/10/01 10:29:04;;;;;;;0.80;0.67;;;;;;;-145.69;100.00;71458.09;5032592;28;20231;-76
2022/10/01 10:31:43;;;;;;;1.80;0.83;;;;;;;-145.69;100.00;71491.94;5036019;28;20200;-75
2022/10/01 10:34:17;;;;;;;3.17;1.30;;;;;;;-145.69;100.00;71493.94;5036117;28;20233;-75
2022/10/01 10:36:45;;;;;;;2.30;0.98;;;;;;;-145.69;100.00;71521.78;5035574;28;20495;-76
2022/10/01 10:39:20;;;;;;;1.90;1.20;;;;;;;-145.69;100.00;71541.69;5036225;28;20599;-75
2022/10/01 10:41:48;;;;;;;1.67;1.00;;;;;;;-145.69;100.00;71527.75;5035867;28;20282;-74
2022/10/01 10:44:20;;;;;;;2.43;1.10;;;;;;;-145.69;100.00;71529.75;5035690;28;20215;-74
2022/10/01 10:46:47;;;;;;;2.27;1.40;;;;;;;-145.69;100.00;71519.81;5035888;28;20613;-75
2022/10/01 10:49:24;;;;;;;7.47;3.67;;;;;;;-145.69;100.00;71545.66;5035916;28;20208;-77
2022/10/01 10:51:53;;;;;;;2.47;1.27;;;;;;;-145.69;100.00;71525.78;5035882;28;20207;-75
2022/10/01 10:54:30;;;;;;;2.67;1.60;;;;;;;-145.69;100.00;71535.72;5035792;28;20223;-74
2022/10/01 10:57:01;;;;;;;1.40;1.00;;;;;;;-145.69;100.00;71509.84;5018454;28;20208;-74
2022/10/01 10:59:30;;;;;;;1.53;1.37;;;;;;;-145.69;100.00;71513.81;5035705;28;20258;-74
2022/10/01 11:01:57;;;;;;;1.83;1.47;;;;;;;-145.69;100.00;71521.78;5025496;28;20205;-74
2022/10/01 11:04:37;;;;;;;1.97;0.90;;;;;;;-145.69;100.00;71501.88;5017264;28;20623;-74
2022/10/01 11:07:04;;;;;;;1.40;0.97;;;;;;;-145.69;100.00;71515.81;5034132;28;20207;-74
2022/10/01 11:09:42;;;;;;;2.00;1.60;;;;;;;-145.69;100.00;71529.75;5018841;28;20295;-74
2022/10/01 11:12:20;;;;;;;3.80;1.90;;;;;;;-145.69;100.00;71529.75;5015433;28;20223;-74
2022/10/01 11:15:08;;;;;;;1.53;1.23;;;;;;;-145.69;100.00;71521.78;5015667;28;20228;-74
2022/10/01 11:18:01;;;;;;;2.23;1.30;;;;;;;-145.69;100.00;71527.75;5015104;28;20236;-73
2022/10/01 11:20:38;;;;;;;1.73;1.40;;;;;;;-145.69;100.00;71515.81;5013410;28;20216;-74